createdAt,value
2019-04-03T00:09:25.557Z,9.07
2019-04-03T00:24:32.751Z,8.30
2019-04-03T00:39:40.014Z,8.87
2019-04-03T00:54:47.259Z,8.03
2019-04-03T01:09:54.555Z,8.23
2019-04-03T01:25:01.951Z,8.43
2019-04-03T01:40:09.257Z,9.67
2019-04-03T01:55:16.505Z,9.07
2019-04-03T02:10:24.258Z,8.97
2019-04-03T02:25:32.467Z,9.30
2019-04-03T02:40:39.899Z,9.33
2019-04-03T02:55:46.839Z,8.33
2019-04-03T03:10:54.664Z,9.93
2019-04-03T03:26:04.057Z,9.97
2019-04-03T03:41:10.825Z,9.63
2019-04-03T03:56:20.563Z,10.43
2019-04-03T04:11:30.765Z,10.20
2019-04-03T04:26:38.092Z,10.63
2019-04-03T04:41:45.069Z,10.20
2019-04-03T04:56:52.599Z,9.87
2019-04-03T05:11:59.874Z,10.87
2019-04-03T05:27:08.247Z,10.90
2019-04-03T05:42:17.019Z,11.20
2019-04-03T05:57:24.670Z,11.90
2019-04-03T06:12:32.026Z,11.20
2019-04-03T06:27:42.180Z,11.73
2019-04-03T06:42:48.267Z,11.23
2019-04-03T06:57:56.590Z,12.23
2019-04-03T07:13:03.920Z,11.77
2019-04-03T07:28:11.426Z,12.90
2019-04-03T07:43:18.414Z,12.30
2019-04-03T07:58:25.864Z,12.93
2019-04-03T08:13:33.150Z,10.67
2019-04-03T08:28:40.407Z,13.77
2019-04-03T08:43:47.766Z,13.37
2019-04-03T08:58:57.364Z,12.17
2019-04-03T09:14:03.927Z,13.33
2019-04-03T09:29:13.605Z,12.07
2019-04-03T09:59:57.591Z,11.97
2019-04-03T10:15:07.141Z,13.23
2019-04-03T10:30:15.725Z,11.88
2019-04-03T10:45:23.445Z,11.28
2019-04-03T11:00:31.224Z,11.70
2019-04-03T11:15:38.639Z,12.27
2019-04-03T11:30:46.035Z,12.10
2019-04-03T11:45:53.701Z,12.60
2019-04-03T12:01:01.336Z,11.67
2019-04-03T12:16:08.549Z,11.48
2019-04-03T12:31:16.074Z,13.20
2019-04-03T12:46:41.034Z,11.20
2019-04-03T13:01:49.172Z,12.77
2019-04-03T13:16:57.334Z,15.70
2019-04-03T13:32:05.141Z,11.40
2019-04-03T13:47:12.794Z,13.47
2019-04-03T14:02:21.265Z,12.53
2019-04-03T14:17:28.755Z,12.20
2019-04-03T14:32:36.332Z,12.60
2019-04-03T14:47:44.769Z,10.57
2019-04-03T15:02:53.121Z,10.47
2019-04-03T15:18:01.487Z,14.00
2019-04-03T15:33:09.487Z,14.75
2019-04-03T15:48:21.005Z,16.57
2019-04-03T16:03:27.409Z,16.20
2019-04-03T16:18:37.864Z,14.07
2019-04-03T16:33:43.816Z,12.63
2019-04-03T16:48:51.753Z,16.97
2019-04-03T17:03:59.154Z,13.43
2019-04-03T17:19:06.601Z,13.60
2019-04-03T17:34:13.979Z,11.60
2019-04-03T17:49:24.352Z,13.03
2019-04-03T18:04:30.642Z,11.80
2019-04-03T18:19:41.506Z,13.07
2019-04-03T18:34:50.776Z,13.60
2019-04-03T18:49:56.270Z,14.40
2019-04-03T19:05:04.387Z,11.87
2019-04-03T19:20:11.881Z,11.30
2019-04-03T19:35:19.529Z,11.95
2019-04-03T19:50:26.930Z,12.13
2019-04-03T20:05:34.311Z,14.10
2019-04-03T20:20:41.759Z,11.90
2019-04-03T20:35:49.683Z,13.90
2019-04-03T20:50:57.732Z,12.10
2019-04-03T21:06:05.157Z,13.37
2019-04-03T21:21:12.559Z,12.27
2019-04-03T21:36:19.957Z,13.73
2019-04-03T21:51:27.324Z,11.87
2019-04-03T22:06:34.851Z,12.63
2019-04-03T22:21:42.261Z,12.77
2019-04-03T22:36:51.347Z,12.83
2019-04-03T22:51:58.738Z,11.37
2019-04-03T23:07:06.138Z,11.83
2019-04-03T23:22:13.508Z,11.70
2019-04-03T23:37:20.923Z,12.33
2019-04-03T23:52:29.975Z,13.40
